createdAt,value
2022-10-31T00:01:01.904Z,96333.69
2022-10-31T00:03:28.303Z,96330.84
2022-10-31T00:05:54.721Z,96323.72
2022-10-31T00:08:21.110Z,96323.72
2022-10-31T00:10:47.599Z,96326.75
2022-10-31T00:13:14.841Z,96324.09
2022-10-31T00:15:41.427Z,96322.91
2022-10-31T00:18:08.551Z,96324.72
2022-10-31T00:20:34.998Z,96323.69
2022-10-31T00:23:02.196Z,96320.22
2022-10-31T00:25:29.576Z,96319.19
2022-10-31T00:27:56.090Z,96318.41
2022-10-31T00:30:22.889Z,96315.13
2022-10-31T00:32:49.256Z,96317.97
2022-10-31T00:35:16.334Z,96315.50
2022-10-31T00:37:42.710Z,96308.56
2022-10-31T00:40:09.476Z,96316.31
2022-10-31T00:42:35.833Z,96303.72
2022-10-31T00:45:02.219Z,96310.16
2022-10-31T00:47:28.571Z,96312.22
2022-10-31T00:49:54.933Z,96311.19
2022-10-31T00:52:21.338Z,96309.38
2022-10-31T00:54:47.724Z,96316.06
2022-10-31T00:57:14.102Z,96305.66
2022-10-31T00:59:40.476Z,96314.22
2022-10-31T01:02:06.967Z,96315.22
2022-10-31T01:04:33.405Z,96308.13
2022-10-31T01:06:59.811Z,96303.25
2022-10-31T01:09:26.338Z,96308.97
2022-10-31T01:11:52.714Z,96309.81
2022-10-31T01:14:19.071Z,96304.66
2022-10-31T01:16:45.478Z,96311.63
2022-10-31T01:19:11.908Z,96314.28
2022-10-31T01:21:38.314Z,96315.84
2022-10-31T01:24:04.979Z,96310.56
2022-10-31T01:26:32.929Z,96306.91
2022-10-31T01:29:04.102Z,96313.22
2022-10-31T01:31:31.881Z,96301.19
2022-10-31T01:33:58.302Z,96304.00
2022-10-31T01:36:32.142Z,96301.75
2022-10-31T01:39:03.431Z,96304.41
2022-10-31T01:41:31.305Z,96304.41
2022-10-31T01:43:59.688Z,96310.31
2022-10-31T01:46:32.005Z,96309.50
2022-10-31T01:49:00.046Z,96307.06
2022-10-31T01:51:29.327Z,96300.13
2022-10-31T01:53:59.093Z,96301.53
2022-10-31T01:56:25.838Z,96306.00
2022-10-31T01:58:52.615Z,96318.00
2022-10-31T02:01:19.281Z,96312.91
2022-10-31T02:03:47.335Z,96315.13
2022-10-31T02:06:19.313Z,96302.28
2022-10-31T02:08:46.648Z,96303.47
2022-10-31T02:11:13.577Z,96315.28
2022-10-31T02:13:40.027Z,96306.06
2022-10-31T02:16:07.037Z,96308.91
2022-10-31T02:18:33.480Z,96313.56
2022-10-31T02:21:08.047Z,96310.31
2022-10-31T02:23:47.822Z,96305.41
2022-10-31T02:26:35.236Z,96310.25
2022-10-31T02:29:20.393Z,96308.63
2022-10-31T02:31:46.767Z,96306.19
2022-10-31T02:34:42.616Z,96314.72
2022-10-31T02:37:24.141Z,96311.47
2022-10-31T02:39:50.505Z,96312.28
2022-10-31T02:42:20.205Z,96310.84
2022-10-31T02:44:51.031Z,96298.81
2022-10-31T02:47:25.269Z,96305.13
2022-10-31T02:50:03.526Z,96310.59
2022-10-31T02:52:31.669Z,96298.38
2022-10-31T02:54:58.405Z,96309.38
2022-10-31T02:57:33.474Z,96312.66
2022-10-31T03:00:02.332Z,96310.22
2022-10-31T03:02:41.089Z,96310.22
2022-10-31T03:05:12.864Z,96309.78
2022-10-31T03:07:48.661Z,96314.63
2022-10-31T03:10:22.891Z,96320.31
2022-10-31T03:13:06.634Z,96313.34
2022-10-31T03:15:33.059Z,96313.56
2022-10-31T03:18:05.311Z,96319.03
2022-10-31T03:20:36.540Z,96318.22
2022-10-31T03:23:04.740Z,96314.97
2022-10-31T03:25:32.850Z,96316.97
2022-10-31T03:28:00.858Z,96322.06
2022-10-31T03:30:27.678Z,96325.72
2022-10-31T03:32:56.725Z,96321.44
2022-10-31T03:35:24.600Z,96325.09
2022-10-31T03:37:53.104Z,96325.44
2022-10-31T03:40:21.990Z,96327.28
2022-10-31T03:42:53.281Z,96325.09
2022-10-31T03:45:25.531Z,96321.03
2022-10-31T03:47:52.800Z,96325.97
2022-10-31T03:50:19.667Z,96322.31
2022-10-31T03:52:48.075Z,96319.47
2022-10-31T03:55:14.603Z,96319.28
2022-10-31T03:58:00.206Z,96328.88
2022-10-31T04:00:27.041Z,96333.75
2022-10-31T04:03:02.390Z,96325.84
2022-10-31T04:05:30.486Z,96330.50
2022-10-31T04:07:58.237Z,96333.31
2022-10-31T04:10:31.853Z,96327.22
2022-10-31T04:13:04.863Z,96330.88
2022-10-31T04:15:32.599Z,96336.16
2022-10-31T04:18:00.490Z,96329.84
2022-10-31T04:20:31.380Z,96326.03
2022-10-31T04:22:57.842Z,96330.88
2022-10-31T04:25:24.242Z,96332.69
2022-10-31T04:27:50.634Z,96324.50
2022-10-31T04:30:17.171Z,96336.72
2022-10-31T04:32:43.546Z,96333.66
2022-10-31T04:35:09.961Z,96330.56
2022-10-31T04:37:36.332Z,96338.84
2022-10-31T04:40:02.849Z,96339.25
2022-10-31T04:42:32.381Z,96335.53
2022-10-31T04:44:58.750Z,96346.94
2022-10-31T04:47:25.118Z,96343.19
2022-10-31T04:49:51.510Z,96334.84
2022-10-31T04:52:17.902Z,96337.31
2022-10-31T04:54:44.312Z,96345.59
2022-10-31T04:57:10.697Z,96346.81
2022-10-31T04:59:37.075Z,96338.44
2022-10-31T05:02:03.640Z,96342.25
2022-10-31T05:04:30.154Z,96342.69
2022-10-31T05:06:56.524Z,96344.53
2022-10-31T05:09:22.884Z,96345.97
2022-10-31T05:11:49.271Z,96349.06
2022-10-31T05:14:15.642Z,96352.16
2022-10-31T05:16:42.029Z,96346.88
2022-10-31T05:19:08.509Z,96347.88
2022-10-31T05:21:34.906Z,96347.06
2022-10-31T05:24:01.275Z,96346.22
2022-10-31T05:26:27.665Z,96343.59
2022-10-31T05:28:54.074Z,96359.81
2022-10-31T05:31:20.460Z,96355.19
2022-10-31T05:33:46.962Z,96352.53
2022-10-31T05:36:13.365Z,96357.19
2022-10-31T05:38:39.804Z,96358.19
2022-10-31T05:41:06.257Z,96356.53
2022-10-31T05:43:32.647Z,96358.19
2022-10-31T05:45:59.083Z,96357.81
2022-10-31T05:48:25.466Z,96368.00
2022-10-31T05:50:51.878Z,96361.09
2022-10-31T05:53:18.297Z,96352.91
2022-10-31T05:55:44.775Z,96353.28
2022-10-31T05:58:11.559Z,96353.28
2022-10-31T06:00:37.931Z,96357.91
2022-10-31T06:03:05.532Z,96363.03
2022-10-31T06:05:32.214Z,96365.25
2022-10-31T06:07:59.391Z,96362.88
2022-10-31T06:10:26.875Z,96363.59
2022-10-31T06:12:53.323Z,96359.06
2022-10-31T06:15:23.754Z,96358.25
2022-10-31T06:18:05.466Z,96373.19
2022-10-31T06:20:32.419Z,96371.91
2022-10-31T06:22:59.150Z,96373.19
2022-10-31T06:25:26.059Z,96368.75
2022-10-31T06:27:52.501Z,96373.06
2022-10-31T06:30:18.951Z,96371.50
2022-10-31T06:32:45.340Z,96371.44
2022-10-31T06:35:11.734Z,96382.50
2022-10-31T06:37:38.590Z,96379.59
2022-10-31T06:40:05.200Z,96382.97
2022-10-31T06:42:31.560Z,96389.69
2022-10-31T06:44:57.962Z,96386.06
2022-10-31T06:47:24.317Z,96386.44
2022-10-31T06:49:50.686Z,96388.81
2022-10-31T06:52:17.157Z,96392.72
2022-10-31T06:54:43.513Z,96383.78
2022-10-31T06:57:09.910Z,96392.72
2022-10-31T06:59:36.311Z,96394.34
2022-10-31T07:02:02.859Z,96392.72
2022-10-31T07:04:29.473Z,96394.72
2022-10-31T07:06:55.873Z,96390.09
2022-10-31T07:09:22.346Z,96382.50
2022-10-31T07:11:48.732Z,96387.19
2022-10-31T07:14:15.238Z,96390.63
2022-10-31T07:16:41.585Z,96390.69
2022-10-31T07:19:07.985Z,96380.13
2022-10-31T07:21:34.346Z,96391.06
2022-10-31T07:24:00.816Z,96389.06
2022-10-31T07:26:28.652Z,96390.34
2022-10-31T07:28:55.021Z,96395.34
2022-10-31T07:31:21.476Z,96393.81
2022-10-31T07:33:47.847Z,96395.22
2022-10-31T07:36:14.217Z,96392.66
2022-10-31T07:38:40.591Z,96400.13
2022-10-31T07:41:06.969Z,96405.34
2022-10-31T07:43:33.356Z,96404.78
2022-10-31T07:45:59.874Z,96398.50
2022-10-31T07:48:26.238Z,96409.00
2022-10-31T07:50:54.531Z,96397.03
2022-10-31T07:53:20.956Z,96399.41
2022-10-31T07:55:47.402Z,96407.78
2022-10-31T07:58:14.950Z,96403.75
2022-10-31T08:00:42.342Z,96397.41
2022-10-31T08:03:10.012Z,96405.22
2022-10-31T08:05:36.469Z,96408.13
2022-10-31T08:08:04.015Z,96393.53
2022-10-31T08:10:31.059Z,96401.47
2022-10-31T08:12:58.732Z,96397.00
2022-10-31T08:15:25.536Z,96396.19
2022-10-31T08:17:51.997Z,96397.72
2022-10-31T08:20:18.523Z,96400.16
2022-10-31T08:22:52.960Z,96388.31
2022-10-31T08:25:19.318Z,96389.41
2022-10-31T08:27:49.377Z,96394.56
2022-10-31T08:30:15.776Z,96394.63
2022-10-31T08:32:42.153Z,96394.09
2022-10-31T08:35:08.675Z,96389.03
2022-10-31T08:37:35.014Z,96389.47
2022-10-31T08:40:01.382Z,96397.84
2022-10-31T08:42:27.734Z,96396.47
2022-10-31T08:44:54.102Z,96395.91
2022-10-31T08:47:20.494Z,96391.41
2022-10-31T08:49:46.914Z,96389.16
2022-10-31T08:52:14.548Z,96391.16
2022-10-31T08:54:41.070Z,96395.56
2022-10-31T08:57:07.483Z,96387.63
2022-10-31T08:59:34.074Z,96393.38
2022-10-31T09:02:00.521Z,96384.88
2022-10-31T09:04:27.018Z,96383.91
2022-10-31T09:07:20.197Z,96383.63
2022-10-31T09:09:41.918Z,96388.13
2022-10-31T09:12:08.306Z,96385.53
2022-10-31T09:14:34.761Z,96388.22
2022-10-31T09:17:01.126Z,96381.59
2022-10-31T09:19:27.492Z,96378.84
2022-10-31T09:21:55.001Z,96379.13
2022-10-31T09:24:21.651Z,96381.59
2022-10-31T09:26:48.060Z,96375.94
2022-10-31T09:29:14.406Z,96379.09
2022-10-31T09:31:44.696Z,96380.94
2022-10-31T09:34:11.542Z,96382.78
2022-10-31T09:36:38.608Z,96378.56
2022-10-31T09:39:05.131Z,96385.75
2022-10-31T09:41:41.303Z,96381.91
2022-10-31T09:44:27.520Z,96378.69
2022-10-31T09:47:01.851Z,96381.97
2022-10-31T09:49:52.056Z,96392.19
2022-10-31T09:52:22.067Z,96383.25
2022-10-31T09:55:05.676Z,96381.22
2022-10-31T09:57:36.640Z,96384.50
2022-10-31T10:00:05.491Z,96381.88
2022-10-31T10:02:44.243Z,96379.00
2022-10-31T10:05:15.752Z,96383.72
2022-10-31T10:08:02.410Z,96385.75
2022-10-31T10:10:36.684Z,96380.22
2022-10-31T10:13:15.394Z,96382.09
2022-10-31T10:15:44.553Z,96384.53
2022-10-31T10:18:20.014Z,96380.84
2022-10-31T10:20:49.428Z,96372.25
2022-10-31T10:23:34.368Z,96376.72
2022-10-31T10:26:14.246Z,96377.19
2022-10-31T10:28:42.995Z,96366.31
2022-10-31T10:31:21.316Z,96376.72
2022-10-31T10:34:06.106Z,96368.94
2022-10-31T10:36:41.568Z,96373.44
2022-10-31T10:39:19.737Z,96378.31
2022-10-31T10:42:08.587Z,96371.72
2022-10-31T10:44:55.375Z,96369.84
2022-10-31T10:47:40.005Z,96365.34
2022-10-31T10:50:19.503Z,96361.84
2022-10-31T10:52:50.849Z,96370.19
2022-10-31T10:55:25.169Z,96356.03
2022-10-31T10:58:08.729Z,96362.56
2022-10-31T11:00:47.417Z,96354.34
2022-10-31T11:03:15.078Z,96353.91
2022-10-31T11:05:41.428Z,96355.34
2022-10-31T11:08:07.864Z,96355.72
2022-10-31T11:10:34.966Z,96360.81
2022-10-31T11:13:13.697Z,96355.28
2022-10-31T11:16:01.249Z,96351.75
2022-10-31T11:18:30.136Z,96355.63
2022-10-31T11:20:57.945Z,96358.47
2022-10-31T11:23:25.634Z,96348.59
2022-10-31T11:25:59.742Z,96347.31
2022-10-31T11:28:27.034Z,96344.03
2022-10-31T11:30:55.681Z,96347.50
2022-10-31T11:33:37.008Z,96346.00
2022-10-31T11:36:10.728Z,96345.38
2022-10-31T11:38:41.695Z,96349.28
2022-10-31T11:41:14.087Z,96347.44
2022-10-31T11:43:46.343Z,96338.19
2022-10-31T11:46:16.464Z,96338.78
2022-10-31T11:48:47.663Z,96344.88
2022-10-31T11:51:20.925Z,96344.28
2022-10-31T11:53:58.442Z,96337.50
2022-10-31T11:56:28.723Z,96339.28
2022-10-31T11:59:00.592Z,96332.94
2022-10-31T12:01:31.154Z,96337.22
2022-10-31T12:04:13.996Z,96336.19
2022-10-31T12:06:41.908Z,96337.22
2022-10-31T12:09:28.952Z,96335.31
2022-10-31T12:11:58.102Z,96336.66
2022-10-31T12:14:34.776Z,96327.78
2022-10-31T12:17:04.141Z,96338.59
2022-10-31T12:19:36.656Z,96338.00
2022-10-31T12:22:03.022Z,96336.53
2022-10-31T12:24:29.392Z,96333.41
2022-10-31T12:27:03.185Z,96330.97
2022-10-31T12:29:37.041Z,96334.75
2022-10-31T12:32:03.391Z,96333.34
2022-10-31T12:34:53.904Z,96337.25
2022-10-31T12:37:36.916Z,96329.84
2022-10-31T12:40:03.294Z,96334.00
2022-10-31T12:42:29.665Z,96337.47
2022-10-31T12:45:02.241Z,96334.56
2022-10-31T12:47:34.780Z,96339.75
2022-10-31T12:50:01.137Z,96336.50
2022-10-31T12:52:47.478Z,96330.38
2022-10-31T12:55:32.655Z,96340.63
2022-10-31T12:58:02.895Z,96338.19
2022-10-31T13:00:32.337Z,96343.59
2022-10-31T13:03:02.942Z,96340.75
2022-10-31T13:05:34.884Z,96346.63
2022-10-31T13:08:10.690Z,96347.06
2022-10-31T13:10:49.020Z,96347.91
2022-10-31T13:13:21.645Z,96350.81
2022-10-31T13:15:49.839Z,96344.72
2022-10-31T13:18:22.958Z,96352.53
2022-10-31T13:20:54.702Z,96348.31
2022-10-31T13:23:49.748Z,96354.28
2022-10-31T13:26:22.421Z,96352.72
2022-10-31T13:28:51.813Z,96352.94
2022-10-31T13:31:18.279Z,96351.94
2022-10-31T13:33:49.509Z,96360.34
2022-10-31T13:36:21.759Z,96349.88
2022-10-31T13:39:00.469Z,96358.44
2022-10-31T13:41:32.159Z,96349.47
2022-10-31T13:44:17.046Z,96352.22
2022-10-31T13:49:27.606Z,96367.75
2022-10-31T13:51:54.175Z,96364.72
2022-10-31T13:54:34.180Z,96363.94
2022-10-31T13:57:01.019Z,96356.56
2022-10-31T13:59:28.987Z,96356.16
2022-10-31T14:02:01.177Z,96361.50
2022-10-31T14:04:38.856Z,96363.16
2022-10-31T14:07:10.624Z,96366.66
2022-10-31T14:09:36.993Z,96366.47
2022-10-31T14:12:05.948Z,96365.28
2022-10-31T14:14:44.952Z,96362.19
2022-10-31T14:17:18.468Z,96364.03
2022-10-31T14:19:56.599Z,96374.25
2022-10-31T14:22:24.476Z,96366.88
2022-10-31T14:24:50.865Z,96359.13
2022-10-31T14:27:20.273Z,96359.94
2022-10-31T14:29:50.311Z,96366.91
2022-10-31T14:32:24.455Z,96366.50
2022-10-31T14:34:50.858Z,96370.59
2022-10-31T14:37:26.075Z,96367.53
2022-10-31T14:40:04.924Z,96368.97
2022-10-31T14:42:49.998Z,96365.09
2022-10-31T14:45:28.312Z,96367.38
2022-10-31T14:47:57.746Z,96364.09
2022-10-31T14:50:43.158Z,96368.97
2022-10-31T14:53:14.786Z,96374.09
2022-10-31T14:55:48.383Z,96371.66
2022-10-31T14:58:17.996Z,96369.00
2022-10-31T15:00:44.532Z,96370.63
2022-10-31T15:03:26.365Z,96376.34
2022-10-31T15:05:54.716Z,96372.69
2022-10-31T15:08:32.991Z,96378.59
2022-10-31T15:11:03.155Z,96384.13
2022-10-31T15:13:29.538Z,96385.53
2022-10-31T15:15:56.911Z,96377.38
2022-10-31T15:18:25.968Z,96375.94
2022-10-31T15:20:53.486Z,96376.34
2022-10-31T15:23:25.395Z,96366.56
2022-10-31T15:25:59.112Z,96381.66
2022-10-31T15:28:26.071Z,96381.28
2022-10-31T15:30:54.206Z,96386.16
2022-10-31T15:33:22.170Z,96384.94
2022-10-31T15:36:01.657Z,96383.91
2022-10-31T15:38:28.980Z,96380.66
2022-10-31T15:40:58.343Z,96387.81
2022-10-31T15:43:24.819Z,96388.81
2022-10-31T15:45:51.324Z,96380.84
2022-10-31T15:48:19.194Z,96386.78
2022-10-31T15:50:51.141Z,96380.44
2022-10-31T15:53:27.000Z,96391.88
2022-10-31T15:55:55.854Z,96396.34
2022-10-31T15:58:23.089Z,96397.19
2022-10-31T16:01:03.255Z,96401.88
2022-10-31T16:03:30.906Z,96406.56
2022-10-31T16:06:04.856Z,96406.16
2022-10-31T16:08:31.233Z,96408.03
2022-10-31T16:10:58.649Z,96410.84
2022-10-31T16:13:28.247Z,96410.25
2022-10-31T16:18:53.710Z,96422.91
2022-10-31T16:21:37.165Z,96423.31
2022-10-31T16:24:06.461Z,96422.69
2022-10-31T16:26:33.516Z,96419.63
2022-10-31T16:29:04.833Z,96432.28
2022-10-31T16:31:37.774Z,96422.06
2022-10-31T16:34:26.910Z,96425.09
2022-10-31T16:36:54.187Z,96433.06
2022-10-31T16:39:20.658Z,96431.84
2022-10-31T16:41:48.268Z,96422.84
2022-10-31T16:44:17.681Z,96440.38
2022-10-31T16:46:44.190Z,96436.69
2022-10-31T16:49:11.351Z,96429.72
2022-10-31T16:51:38.110Z,96436.25
2022-10-31T16:54:04.615Z,96427.25
2022-10-31T16:56:32.516Z,96432.97
2022-10-31T16:59:03.739Z,96433.75
2022-10-31T17:01:30.792Z,96434.13
2022-10-31T17:03:57.318Z,96435.94
2022-10-31T17:06:23.668Z,96434.88
2022-10-31T17:08:50.080Z,96436.91
2022-10-31T17:11:18.312Z,96427.53
2022-10-31T17:13:44.742Z,96430.59
2022-10-31T17:16:13.207Z,96430.97
2022-10-31T17:18:39.552Z,96428.72
2022-10-31T17:21:06.305Z,96440.69
2022-10-31T17:23:36.892Z,96443.72
2022-10-31T17:26:03.291Z,96444.13
2022-10-31T17:28:29.698Z,96442.50
2022-10-31T17:30:58.404Z,96440.25
2022-10-31T17:33:25.130Z,96436.75
2022-10-31T17:35:51.769Z,96438.59
2022-10-31T17:38:18.221Z,96436.75
2022-10-31T17:40:45.273Z,96444.91
2022-10-31T17:43:12.227Z,96438.78
2022-10-31T17:45:39.548Z,96436.75
2022-10-31T17:48:06.046Z,96442.50
2022-10-31T17:50:32.435Z,96442.50
2022-10-31T17:52:59.126Z,96444.75
2022-10-31T17:55:25.676Z,96437.22
2022-10-31T17:57:52.172Z,96436.84
2022-10-31T18:00:21.032Z,96435.22
2022-10-31T18:02:47.429Z,96435.03
2022-10-31T18:05:13.791Z,96432.38
2022-10-31T18:07:40.214Z,96426.25
2022-10-31T18:10:07.007Z,96436.03
2022-10-31T18:12:35.150Z,96431.56
2022-10-31T18:15:01.550Z,96429.53
2022-10-31T18:17:28.017Z,96429.34
2022-10-31T18:19:54.454Z,96431.59
2022-10-31T18:22:20.815Z,96430.97
2022-10-31T18:24:47.224Z,96430.38
2022-10-31T18:27:13.650Z,96427.09
2022-10-31T18:29:40.055Z,96433.75
2022-10-31T18:32:09.509Z,96428.66
2022-10-31T18:34:36.362Z,96429.47
2022-10-31T18:37:03.330Z,96433.75
2022-10-31T18:39:29.759Z,96438.19
2022-10-31T18:41:56.219Z,96438.78
2022-10-31T18:44:22.642Z,96435.50
2022-10-31T18:46:49.016Z,96434.88
2022-10-31T18:49:22.246Z,96430.16
2022-10-31T18:51:51.809Z,96432.44
2022-10-31T18:54:18.305Z,96432.28
2022-10-31T18:56:44.870Z,96424.56
2022-10-31T18:59:11.570Z,96425.63
2022-10-31T19:01:38.140Z,96428.72
2022-10-31T19:04:04.770Z,96429.34
2022-10-31T19:06:31.173Z,96423.00
2022-10-31T19:08:59.077Z,96428.28
2022-10-31T19:11:25.693Z,96427.16
2022-10-31T19:13:52.103Z,96424.91
2022-10-31T19:16:18.508Z,96423.25
2022-10-31T19:18:44.992Z,96423.84
2022-10-31T19:21:12.919Z,96426.56
2022-10-31T19:23:39.603Z,96426.75
2022-10-31T19:26:06.161Z,96427.34
2022-10-31T19:28:33.731Z,96422.69
2022-10-31T19:31:00.177Z,96423.91
2022-10-31T19:33:33.420Z,96420.00
2022-10-31T19:36:13.329Z,96429.78
2022-10-31T19:38:41.258Z,96429.41
2022-10-31T19:41:09.047Z,96425.34
2022-10-31T19:43:35.531Z,96429.44
2022-10-31T19:46:03.643Z,96424.50
2022-10-31T19:48:30.419Z,96424.50
2022-10-31T19:51:01.009Z,96423.31
2022-10-31T19:53:28.611Z,96421.50
2022-10-31T19:55:55.111Z,96422.28
2022-10-31T19:58:21.495Z,96422.91
2022-10-31T20:00:47.946Z,96426.00
2022-10-31T20:03:18.347Z,96425.78
2022-10-31T20:05:48.032Z,96437.69
2022-10-31T20:08:15.737Z,96429.94
2022-10-31T20:10:42.780Z,96429.94
2022-10-31T20:13:10.695Z,96432.38
2022-10-31T20:15:37.401Z,96435.22
2022-10-31T20:18:03.800Z,96433.75
2022-10-31T20:20:30.257Z,96429.47
2022-10-31T20:22:56.657Z,96430.88
2022-10-31T20:25:23.021Z,96430.03
2022-10-31T20:27:49.373Z,96433.50
2022-10-31T20:30:15.767Z,96435.16
2022-10-31T20:32:45.220Z,96433.91
2022-10-31T20:35:13.982Z,96435.50
2022-10-31T20:37:40.357Z,96433.84
2022-10-31T20:40:07.002Z,96431.72
2022-10-31T20:42:33.391Z,96422.13
2022-10-31T20:44:59.805Z,96427.84
2022-10-31T20:47:26.275Z,96429.69
2022-10-31T20:49:52.814Z,96431.53
2022-10-31T20:52:19.281Z,96424.41
2022-10-31T20:54:45.655Z,96428.13
2022-10-31T20:57:12.058Z,96425.91
2022-10-31T20:59:38.428Z,96421.19
2022-10-31T21:02:04.964Z,96421.84
2022-10-31T21:04:31.457Z,96415.53
2022-10-31T21:06:57.834Z,96416.34
2022-10-31T21:09:24.226Z,96419.81
2022-10-31T21:11:50.630Z,96420.44
2022-10-31T21:14:17.063Z,96423.09
2022-10-31T21:16:43.438Z,96411.00
2022-10-31T21:19:09.844Z,96419.53
2022-10-31T21:21:36.815Z,96416.66
2022-10-31T21:24:07.360Z,96419.63
2022-10-31T21:26:35.559Z,96412.28
2022-10-31T21:29:02.750Z,96409.03
2022-10-31T21:31:29.180Z,96409.91
2022-10-31T21:33:55.802Z,96406.91
2022-10-31T21:36:22.450Z,96409.53
2022-10-31T21:38:52.347Z,96399.13
2022-10-31T21:41:19.293Z,96405.19
2022-10-31T21:43:46.715Z,96401.94
2022-10-31T21:46:15.407Z,96408.25
2022-10-31T21:48:43.470Z,96403.94
2022-10-31T21:51:10.941Z,96402.13
2022-10-31T21:53:56.397Z,96399.47
2022-10-31T21:56:23.161Z,96392.94
2022-10-31T21:58:50.052Z,96393.94
2022-10-31T22:01:16.668Z,96389.06
2022-10-31T22:03:43.132Z,96392.25
2022-10-31T22:06:10.436Z,96387.97
2022-10-31T22:08:36.846Z,96392.84
2022-10-31T22:11:16.544Z,96379.81
2022-10-31T22:13:44.310Z,96385.28
2022-10-31T22:16:12.065Z,96378.38
2022-10-31T22:18:39.030Z,96383.84
2022-10-31T22:21:10.523Z,96378.13
2022-10-31T22:23:36.996Z,96382.63
2022-10-31T22:26:07.527Z,96381.78
2022-10-31T22:28:34.386Z,96380.16
2022-10-31T22:31:07.062Z,96376.88
2022-10-31T22:33:33.679Z,96379.53
2022-10-31T22:36:04.170Z,96379.09
2022-10-31T22:38:30.736Z,96376.66
2022-10-31T22:40:58.122Z,96365.03
2022-10-31T22:43:24.896Z,96371.97
2022-10-31T22:46:00.663Z,96370.31
2022-10-31T22:48:27.842Z,96368.91
2022-10-31T22:50:54.361Z,96375.00
2022-10-31T22:53:20.729Z,96375.19
2022-10-31T22:55:49.714Z,96373.75
2022-10-31T22:58:16.084Z,96363.81
2022-10-31T23:00:42.518Z,96365.00
2022-10-31T23:03:09.106Z,96364.16
2022-10-31T23:05:35.472Z,96357.69
2022-10-31T23:08:02.128Z,96349.13
2022-10-31T23:10:33.328Z,96357.44
2022-10-31T23:13:19.030Z,96352.13
2022-10-31T23:15:45.408Z,96347.97
2022-10-31T23:18:19.059Z,96344.50
2022-10-31T23:20:56.430Z,96342.44
2022-10-31T23:23:22.783Z,96339.59
2022-10-31T23:26:07.988Z,96338.16
2022-10-31T23:28:34.390Z,96337.97
2022-10-31T23:31:00.802Z,96333.47
2022-10-31T23:33:31.376Z,96340.41
2022-10-31T23:35:57.973Z,96333.91
2022-10-31T23:38:24.359Z,96338.00
2022-10-31T23:40:50.718Z,96328.25
2022-10-31T23:43:17.104Z,96328.25
2022-10-31T23:45:43.574Z,96333.34
2022-10-31T23:48:09.985Z,96328.84
2022-10-31T23:50:36.757Z,96325.78
2022-10-31T23:53:03.188Z,96318.88
2022-10-31T23:55:29.707Z,96321.50
2022-10-31T23:57:56.128Z,96325.19
